This demonstration page uses our WeatherBlox Daily Observations layout. Learn more.

Left ArrowRight Arrow

36.19886, -115.1175

Hourly Observations for December 8, 2018

Temp ( °F °C ) Dew Point ( °F °C ) Humidity (%) Winds ( mph kmh ) Pressure ( in mb ) Visibility ( mi km ) Precip ( " mm )
12:53 am 00:53 Clear 44 6.7 40 4.4 85 85 WNW 7 11 30.29 1026 10 16.0934 N/A
1:53 am 01:53 Clear 47 8.3 39 3.9 74 74 NNW 7 11 30.29 1026 10 16.0934 N/A
2:53 am 02:53 Clear 44 6.7 38 3.3 79 79 NW 7 11 30.3 1026 10 16.0934 N/A
3:53 am 03:53 Clear 45 7.2 38 3.3 77 77 NNW 5 7 30.3 1026 10 16.0934 N/A
4:53 am 04:53 Clear 44 6.7 37 2.8 76 76 WNW 7 11 30.32 1027 10 16.0934 N/A
5:53 am 05:53 Clear 43 6.1 37 2.8 80 80 NW 9 15 30.33 1027 10 16.0934 N/A
6:53 am 06:53 Sunny 42 5.6 37 2.8 82 82 NW 7 11 30.35 1028 10 16.0934 N/A
7:53 am 07:53 Sunny 50 10 38 3.3 63 63 N 5 7 30.37 1028 10 16.0934 N/A
8:53 am 08:53 Sunny 53 11.7 38 3.3 57 57 N 6 9 30.39 1029 10 16.0934 N/A
9:53 am 09:53 Sunny 55 12.8 39 3.9 55 55 NNW 7 11 30.39 1029 10 16.0934 N/A
10:53 am 10:53 Sunny 56 13.3 41 5 57 57 E 5 7 30.38 1029 10 16.0934 N/A
11:53 am 11:53 Sunny 57 13.9 39 3.9 51 51 VRB 3 6 30.35 1028 10 16.0934 N/A
12:53 pm 12:53 Sunny 60 15.6 39 3.9 46 46 E 3 6 30.33 1027 10 16.0934 N/A
1:53 pm 13:53 Sunny 61 16.1 38 3.3 43 43 E 5 7 30.31 1026 10 16.0934 N/A
2:53 pm 14:53 Sunny 61 16.1 39 3.9 44 44 N N/A 30.31 1026 10 16.0934 N/A
3:53 pm 15:53 Sunny 60 15.6 39 3.9 46 46 N N/A 30.3 1026 10 16.0934 N/A
4:53 pm 16:53 Clear 58 14.4 40 4.4 51 51 N N/A 30.32 1027 10 16.0934 N/A
5:53 pm 17:53 Clear 55 12.8 41 5 59 59 NE 3 6 30.35 1028 10 16.0934 N/A
6:53 pm 18:53 Clear 51 10.6 41 5 69 69 NW 5 7 30.38 1029 10 16.0934 N/A
7:53 pm 19:53 Clear 49 9.4 41 5 74 74 WNW 6 9 30.38 1029 10 16.0934 N/A
8:53 pm 20:53 Clear 47 8.3 40 4.4 77 77 NW 6 9 30.39 1029 10 16.0934 N/A
9:53 pm 21:53 Clear 46 7.8 39 3.9 77 77 NW 7 11 30.4 1030 10 16.0934 N/A
10:53 pm 22:53 Clear 46 7.8 39 3.9 77 77 NNW 3 6 30.4 1030 10 16.0934 N/A
11:53 pm 23:53 Clear 45 7.2 38 3.3 77 77 WNW 5 7 30.4 1029 10 16.0934 N/A

Powered by AerisWeather